sensor_id;sensor_type;location;lat;lon;timestamp;pressure;altitude;pressure_sealevel;temperature;humidity
57050;BME280;42935;50.966;16.992;2023-03-13T00:01:26;100839.30;;;3.28;100.00
57050;BME280;42935;50.966;16.992;2023-03-13T00:04:42;100831.51;;;3.18;100.00
57050;BME280;42935;50.966;16.992;2023-03-13T00:08:02;100837.32;;;3.22;100.00
57050;BME280;42935;50.966;16.992;2023-03-13T00:11:18;100852.90;;;3.36;100.00
57050;BME280;42935;50.966;16.992;2023-03-13T00:14:34;100848.32;;;3.35;100.00
57050;BME280;42935;50.966;16.992;2023-03-13T00:17:52;100822.95;;;3.24;100.00
57050;BME280;42935;50.966;16.992;2023-03-13T00:21:09;100848.81;;;3.47;100.00
57050;BME280;42935;50.966;16.992;2023-03-13T00:24:26;100853.36;;;3.53;100.00
57050;BME280;42935;50.966;16.992;2023-03-13T00:27:43;100845.23;;;3.68;100.00
57050;BME280;42935;50.966;16.992;2023-03-13T00:31:08;100839.90;;;3.72;100.00
57050;BME280;42935;50.966;16.992;2023-03-13T00:34:23;100827.78;;;3.66;100.00
57050;BME280;42935;50.966;16.992;2023-03-13T00:37:42;100838.11;;;3.84;100.00
57050;BME280;42935;50.966;16.992;2023-03-13T00:41:01;100834.84;;;3.90;100.00
57050;BME280;42935;50.966;16.992;2023-03-13T00:44:18;100844.94;;;3.98;100.00
57050;BME280;42935;50.966;16.992;2023-03-13T00:47:35;100849.49;;;3.99;100.00
57050;BME280;42935;50.966;16.992;2023-03-13T00:50:50;100838.14;;;3.99;100.00
57050;BME280;42935;50.966;16.992;2023-03-13T00:54:08;100845.57;;;3.96;100.00
57050;BME280;42935;50.966;16.992;2023-03-13T00:57:32;100830.90;;;3.86;100.00
57050;BME280;42935;50.966;16.992;2023-03-13T01:00:56;100848.49;;;4.04;100.00
57050;BME280;42935;50.966;16.992;2023-03-13T01:04:15;100837.95;;;4.03;100.00
57050;BME280;42935;50.966;16.992;2023-03-13T01:07:30;100826.46;;;4.03;100.00
57050;BME280;42935;50.966;16.992;2023-03-13T01:10:46;100840.53;;;4.20;100.00
57050;BME280;42935;50.966;16.992;2023-03-13T01:14:08;100841.39;;;4.29;100.00
57050;BME280;42935;50.966;16.992;2023-03-13T01:17:25;100841.30;;;4.34;100.00
57050;BME280;42935;50.966;16.992;2023-03-13T01:20:40;100813.08;;;4.17;100.00
57050;BME280;42935;50.966;16.992;2023-03-13T01:24:00;100852.78;;;4.37;100.00
57050;BME280;42935;50.966;16.992;2023-03-13T01:27:20;100857.84;;;4.30;100.00
57050;BME280;42935;50.966;16.992;2023-03-13T01:30:42;100849.30;;;4.23;100.00
57050;BME280;42935;50.966;16.992;2023-03-13T01:34:07;100851.44;;;4.24;100.00
57050;BME280;42935;50.966;16.992;2023-03-13T01:37:30;100858.43;;;4.34;100.00
57050;BME280;42935;50.966;16.992;2023-03-13T01:40:49;100852.91;;;4.36;100.00
57050;BME280;42935;50.966;16.992;2023-03-13T01:44:04;100843.47;;;4.37;100.00
57050;BME280;42935;50.966;16.992;2023-03-13T01:47:24;100840.87;;;4.34;100.00
57050;BME280;42935;50.966;16.992;2023-03-13T01:50:43;100855.34;;;4.34;100.00
57050;BME280;42935;50.966;16.992;2023-03-13T01:54:13;100855.00;;;4.33;100.00
57050;BME280;42935;50.966;16.992;2023-03-13T01:57:39;100848.80;;;4.29;100.00
57050;BME280;42935;50.966;16.992;2023-03-13T02:00:59;100849.90;;;4.28;100.00
57050;BME280;42935;50.966;16.992;2023-03-13T02:04:19;100856.79;;;4.39;100.00
57050;BME280;42935;50.966;16.992;2023-03-13T02:07:44;100857.02;;;4.42;100.00
57050;BME280;42935;50.966;16.992;2023-03-13T02:11:12;100851.63;;;4.40;100.00
57050;BME280;42935;50.966;16.992;2023-03-13T02:14:36;100862.06;;;4.47;100.00
57050;BME280;42935;50.966;16.992;2023-03-13T02:17:54;100841.88;;;4.30;100.00
57050;BME280;42935;50.966;16.992;2023-03-13T02:31:36;100848.94;;;4.62;100.00
57050;BME280;42935;50.966;16.992;2023-03-13T02:34:56;100860.01;;;4.70;100.00
57050;BME280;42935;50.966;16.992;2023-03-13T02:38:21;100829.69;;;4.56;100.00
57050;BME280;42935;50.966;16.992;2023-03-13T02:41:41;100856.08;;;4.85;100.00
57050;BME280;42935;50.966;16.992;2023-03-13T02:44:57;100848.02;;;4.77;100.00
57050;BME280;42935;50.966;16.992;2023-03-13T02:52:01;100865.14;;;4.81;100.00
57050;BME280;42935;50.966;16.992;2023-03-13T02:55:38;100853.59;;;4.78;100.00
57050;BME280;42935;50.966;16.992;2023-03-13T02:58:45;100859.72;;;4.86;100.00
57050;BME280;42935;50.966;16.992;2023-03-13T03:02:04;100846.76;;;4.77;100.00
57050;BME280;42935;50.966;16.992;2023-03-13T03:05:23;100847.01;;;4.79;100.00
57050;BME280;42935;50.966;16.992;2023-03-13T03:08:44;100837.92;;;4.79;100.00
57050;BME280;42935;50.966;16.992;2023-03-13T03:12:09;100842.04;;;4.79;100.00
57050;BME280;42935;50.966;16.992;2023-03-13T03:15:26;100839.85;;;4.82;100.00
57050;BME280;42935;50.966;16.992;2023-03-13T03:18:44;100836.84;;;4.82;100.00
57050;BME280;42935;50.966;16.992;2023-03-13T03:22:04;100841.19;;;4.90;100.00
57050;BME280;42935;50.966;16.992;2023-03-13T03:25:21;100831.52;;;4.84;100.00
57050;BME280;42935;50.966;16.992;2023-03-13T03:28:40;100824.68;;;4.87;100.00
57050;BME280;42935;50.966;16.992;2023-03-13T03:31:57;100823.02;;;5.03;100.00
57050;BME280;42935;50.966;16.992;2023-03-13T03:35:15;100826.77;;;5.06;100.00
57050;BME280;42935;50.966;16.992;2023-03-13T03:38:36;100832.47;;;5.04;100.00
57050;BME280;42935;50.966;16.992;2023-03-13T03:41:57;100817.98;;;4.94;100.00
57050;BME280;42935;50.966;16.992;2023-03-13T03:45:17;100821.05;;;4.98;100.00
57050;BME280;42935;50.966;16.992;2023-03-13T03:48:36;100821.74;;;4.90;100.00
57050;BME280;42935;50.966;16.992;2023-03-13T03:51:53;100834.97;;;5.00;100.00
57050;BME280;42935;50.966;16.992;2023-03-13T03:55:12;100829.27;;;5.02;100.00
57050;BME280;42935;50.966;16.992;2023-03-13T03:58:33;100814.37;;;4.98;100.00
57050;BME280;42935;50.966;16.992;2023-03-13T04:01:53;100836.02;;;5.01;100.00
57050;BME280;42935;50.966;16.992;2023-03-13T04:05:16;100836.57;;;5.02;100.00
57050;BME280;42935;50.966;16.992;2023-03-13T04:08:33;100825.95;;;5.07;100.00
57050;BME280;42935;50.966;16.992;2023-03-13T04:11:50;100810.46;;;5.03;100.00
57050;BME280;42935;50.966;16.992;2023-03-13T04:15:07;100820.63;;;5.16;100.00
57050;BME280;42935;50.966;16.992;2023-03-13T04:18:32;100802.96;;;5.02;100.00
57050;BME280;42935;50.966;16.992;2023-03-13T04:21:57;100813.19;;;5.08;100.00
57050;BME280;42935;50.966;16.992;2023-03-13T04:25:14;100782.03;;;4.92;100.00
57050;BME280;42935;50.966;16.992;2023-03-13T04:28:33;100776.83;;;4.87;100.00
57050;BME280;42935;50.966;16.992;2023-03-13T04:31:50;100780.24;;;4.78;100.00
57050;BME280;42935;50.966;16.992;2023-03-13T04:35:07;100777.74;;;4.71;100.00
57050;BME280;42935;50.966;16.992;2023-03-13T04:38:33;100745.17;;;4.62;100.00
57050;BME280;42935;50.966;16.992;2023-03-13T04:41:53;100773.16;;;4.88;100.00
57050;BME280;42935;50.966;16.992;2023-03-13T04:45:12;100758.45;;;4.86;100.00
57050;BME280;42935;50.966;16.992;2023-03-13T04:48:30;100759.60;;;4.98;100.00
57050;BME280;42935;50.966;16.992;2023-03-13T04:51:50;100759.42;;;5.04;100.00
57050;BME280;42935;50.966;16.992;2023-03-13T04:55:09;100766.36;;;5.14;100.00
57050;BME280;42935;50.966;16.992;2023-03-13T04:58:26;100746.84;;;5.00;100.00
57050;BME280;42935;50.966;16.992;2023-03-13T05:01:45;100765.44;;;5.03;100.00
57050;BME280;42935;50.966;16.992;2023-03-13T05:05:03;100766.66;;;4.95;100.00
57050;BME280;42935;50.966;16.992;2023-03-13T05:08:24;100759.59;;;4.86;100.00
57050;BME280;42935;50.966;16.992;2023-03-13T05:11:43;100759.51;;;4.86;100.00
57050;BME280;42935;50.966;16.992;2023-03-13T05:15:07;100764.09;;;4.91;100.00
57050;BME280;42935;50.966;16.992;2023-03-13T05:18:26;100738.06;;;4.76;100.00
57050;BME280;42935;50.966;16.992;2023-03-13T05:21:42;100755.95;;;4.91;100.00
57050;BME280;42935;50.966;16.992;2023-03-13T05:25:03;100745.05;;;4.92;100.00
57050;BME280;42935;50.966;16.992;2023-03-13T05:28:22;100739.43;;;4.88;100.00
57050;BME280;42935;50.966;16.992;2023-03-13T05:31:41;100752.72;;;5.04;100.00
57050;BME280;42935;50.966;16.992;2023-03-13T05:35:00;100749.33;;;5.07;100.00
57050;BME280;42935;50.966;16.992;2023-03-13T05:38:15;100733.80;;;5.08;100.00
57050;BME280;42935;50.966;16.992;2023-03-13T05:41:39;100725.51;;;5.12;100.00
57050;BME280;42935;50.966;16.992;2023-03-13T05:44:57;100738.90;;;5.24;100.00
57050;BME280;42935;50.966;16.992;2023-03-13T05:48:12;100725.50;;;5.23;100.00
57050;BME280;42935;50.966;16.992;2023-03-13T05:51:28;100719.80;;;5.27;100.00
57050;BME280;42935;50.966;16.992;2023-03-13T05:54:52;100728.45;;;5.37;100.00
57050;BME280;42935;50.966;16.992;2023-03-13T05:58:10;100726.73;;;5.43;100.00
57050;BME280;42935;50.966;16.992;2023-03-13T06:01:27;100723.59;;;5.52;100.00
57050;BME280;42935;50.966;16.992;2023-03-13T06:04:46;100720.49;;;5.54;100.00
57050;BME280;42935;50.966;16.992;2023-03-13T06:08:06;100710.00;;;5.59;100.00
57050;BME280;42935;50.966;16.992;2023-03-13T06:11:27;100682.08;;;5.55;100.00
57050;BME280;42935;50.966;16.992;2023-03-13T06:14:48;100716.95;;;5.72;100.00
57050;BME280;42935;50.966;16.992;2023-03-13T06:18:11;100707.45;;;5.81;100.00
57050;BME280;42935;50.966;16.992;2023-03-13T06:21:34;100702.74;;;5.97;100.00
57050;BME280;42935;50.966;16.992;2023-03-13T06:24:53;100703.46;;;6.00;100.00
57050;BME280;42935;50.966;16.992;2023-03-13T06:28:11;100648.99;;;5.68;100.00
57050;BME280;42935;50.966;16.992;2023-03-13T06:31:26;100667.68;;;5.77;100.00
57050;BME280;42935;50.966;16.992;2023-03-13T06:34:44;100676.63;;;5.86;100.00
57050;BME280;42935;50.966;16.992;2023-03-13T06:38:08;100679.81;;;6.01;100.00
57050;BME280;42935;50.966;16.992;2023-03-13T06:41:26;100674.45;;;6.09;100.00
57050;BME280;42935;50.966;16.992;2023-03-13T06:44:49;100678.20;;;6.21;100.00
57050;BME280;42935;50.966;16.992;2023-03-13T06:48:12;100691.45;;;6.38;100.00
57050;BME280;42935;50.966;16.992;2023-03-13T06:51:33;100698.99;;;6.45;100.00
57050;BME280;42935;50.966;16.992;2023-03-13T06:54:49;100688.37;;;6.47;100.00
57050;BME280;42935;50.966;16.992;2023-03-13T06:58:08;100688.66;;;6.58;100.00
57050;BME280;42935;50.966;16.992;2023-03-13T07:01:29;100669.58;;;6.64;100.00
57050;BME280;42935;50.966;16.992;2023-03-13T07:04:46;100674.37;;;6.80;100.00
57050;BME280;42935;50.966;16.992;2023-03-13T07:08:03;100682.83;;;6.99;100.00
57050;BME280;42935;50.966;16.992;2023-03-13T07:11:22;100656.68;;;7.03;100.00
57050;BME280;42935;50.966;16.992;2023-03-13T07:14:46;100658.39;;;7.20;100.00
57050;BME280;42935;50.966;16.992;2023-03-13T07:18:06;100645.20;;;7.21;100.00
57050;BME280;42935;50.966;16.992;2023-03-13T07:21:23;100643.51;;;7.38;100.00
57050;BME280;42935;50.966;16.992;2023-03-13T07:24:47;100620.59;;;7.42;100.00
57050;BME280;42935;50.966;16.992;2023-03-13T07:28:05;100630.06;;;7.59;100.00
57050;BME280;42935;50.966;16.992;2023-03-13T07:31:25;100640.88;;;7.78;100.00
57050;BME280;42935;50.966;16.992;2023-03-13T07:34:44;100636.25;;;7.81;100.00
57050;BME280;42935;50.966;16.992;2023-03-13T07:38:03;100621.76;;;7.95;100.00
57050;BME280;42935;50.966;16.992;2023-03-13T07:41:26;100619.00;;;8.28;100.00
57050;BME280;42935;50.966;16.992;2023-03-13T07:44:45;100589.18;;;8.43;100.00
57050;BME280;42935;50.966;16.992;2023-03-13T07:48:02;100571.63;;;8.37;100.00
57050;BME280;42935;50.966;16.992;2023-03-13T07:51:23;100567.34;;;8.39;100.00
57050;BME280;42935;50.966;16.992;2023-03-13T07:54:44;100581.91;;;8.42;100.00
57050;BME280;42935;50.966;16.992;2023-03-13T07:58:05;100605.30;;;8.51;100.00
57050;BME280;42935;50.966;16.992;2023-03-13T08:01:27;100613.45;;;8.53;100.00
57050;BME280;42935;50.966;16.992;2023-03-13T08:04:52;100601.66;;;8.50;100.00
57050;BME280;42935;50.966;16.992;2023-03-13T08:08:09;100591.45;;;8.56;100.00
57050;BME280;42935;50.966;16.992;2023-03-13T08:11:27;100591.02;;;8.69;100.00
57050;BME280;42935;50.966;16.992;2023-03-13T08:14:48;100579.01;;;8.71;100.00
57050;BME280;42935;50.966;16.992;2023-03-13T08:18:06;100568.09;;;8.74;100.00
57050;BME280;42935;50.966;16.992;2023-03-13T08:21:31;100569.69;;;8.84;100.00
57050;BME280;42935;50.966;16.992;2023-03-13T08:24:51;100570.39;;;8.95;100.00
57050;BME280;42935;50.966;16.992;2023-03-13T08:28:10;100553.38;;;8.86;100.00
57050;BME280;42935;50.966;16.992;2023-03-13T08:31:35;100562.38;;;8.98;100.00
57050;BME280;42935;50.966;16.992;2023-03-13T08:34:55;100547.44;;;8.97;100.00
57050;BME280;42935;50.966;16.992;2023-03-13T08:38:12;100546.54;;;8.98;100.00
57050;BME280;42935;50.966;16.992;2023-03-13T08:41:35;100559.00;;;9.03;100.00
57050;BME280;42935;50.966;16.992;2023-03-13T08:44:54;100557.75;;;8.98;100.00
57050;BME280;42935;50.966;16.992;2023-03-13T08:48:11;100556.55;;;9.04;100.00
57050;BME280;42935;50.966;16.992;2023-03-13T08:51:32;100547.59;;;9.13;100.00
57050;BME280;42935;50.966;16.992;2023-03-13T08:54:52;100532.84;;;9.19;100.00
57050;BME280;42935;50.966;16.992;2023-03-13T08:58:07;100521.89;;;9.16;100.00
57050;BME280;42935;50.966;16.992;2023-03-13T09:01:31;100518.27;;;9.16;100.00
57050;BME280;42935;50.966;16.992;2023-03-13T09:04:52;100511.55;;;9.14;100.00
57050;BME280;42935;50.966;16.992;2023-03-13T09:08:13;100531.91;;;9.20;100.00
57050;BME280;42935;50.966;16.992;2023-03-13T09:11:29;100517.94;;;9.08;100.00
57050;BME280;42935;50.966;16.992;2023-03-13T09:14:49;100506.64;;;9.13;100.00
57050;BME280;42935;50.966;16.992;2023-03-13T09:18:08;100503.88;;;9.19;100.00
57050;BME280;42935;50.966;16.992;2023-03-13T09:21:30;100498.66;;;9.38;100.00
57050;BME280;42935;50.966;16.992;2023-03-13T09:24:51;100505.39;;;9.40;100.00
57050;BME280;42935;50.966;16.992;2023-03-13T09:28:07;100492.31;;;9.34;100.00
57050;BME280;42935;50.966;16.992;2023-03-13T09:31:25;100495.25;;;9.53;100.00
57050;BME280;42935;50.966;16.992;2023-03-13T09:34:42;100482.22;;;9.62;100.00
57050;BME280;42935;50.966;16.992;2023-03-13T09:38:02;100480.72;;;9.77;100.00
57050;BME280;42935;50.966;16.992;2023-03-13T09:41:26;100466.47;;;9.93;100.00
57050;BME280;42935;50.966;16.992;2023-03-13T09:44:54;100461.62;;;10.06;100.00
57050;BME280;42935;50.966;16.992;2023-03-13T09:51:46;100438.48;;;10.12;100.00
57050;BME280;42935;50.966;16.992;2023-03-13T09:55:19;100428.28;;;10.11;100.00
57050;BME280;42935;50.966;16.992;2023-03-13T09:58:44;100418.93;;;10.21;100.00
57050;BME280;42935;50.966;16.992;2023-03-13T10:05:30;100394.53;;;10.08;100.00
57050;BME280;42935;50.966;16.992;2023-03-13T10:08:50;100394.50;;;10.07;100.00
57050;BME280;42935;50.966;16.992;2023-03-13T10:12:14;100381.10;;;10.02;100.00
57050;BME280;42935;50.966;16.992;2023-03-13T10:16:02;100378.32;;;9.95;100.00
57050;BME280;42935;50.966;16.992;2023-03-13T10:19:13;100376.00;;;9.83;100.00
57050;BME280;42935;50.966;16.992;2023-03-13T10:22:37;100367.99;;;9.64;100.00
57050;BME280;42935;50.966;16.992;2023-03-13T10:25:57;100367.24;;;9.47;100.00
57050;BME280;42935;50.966;16.992;2023-03-13T10:29:27;100364.09;;;9.28;100.00
57050;BME280;42935;50.966;16.992;2023-03-13T10:32:47;100352.69;;;9.05;100.00
57050;BME280;42935;50.966;16.992;2023-03-13T10:36:12;100360.19;;;9.12;100.00
57050;BME280;42935;50.966;16.992;2023-03-13T10:39:32;100355.71;;;9.13;100.00
57050;BME280;42935;50.966;16.992;2023-03-13T10:42:51;100344.00;;;9.27;100.00
57050;BME280;42935;50.966;16.992;2023-03-13T10:46:08;100329.51;;;9.23;100.00
57050;BME280;42935;50.966;16.992;2023-03-13T10:49:29;100343.93;;;9.23;100.00
57050;BME280;42935;50.966;16.992;2023-03-13T10:52:50;100322.27;;;9.16;100.00
57050;BME280;42935;50.966;16.992;2023-03-13T10:56:15;100331.23;;;9.25;100.00
57050;BME280;42935;50.966;16.992;2023-03-13T10:59:47;100334.44;;;9.28;100.00
57050;BME280;42935;50.966;16.992;2023-03-13T11:03:22;100348.13;;;9.37;100.00
57050;BME280;42935;50.966;16.992;2023-03-13T11:06:40;100354.46;;;9.41;100.00
57050;BME280;42935;50.966;16.992;2023-03-13T11:10:05;100361.90;;;9.39;100.00
57050;BME280;42935;50.966;16.992;2023-03-13T11:13:35;100347.65;;;9.42;100.00
57050;BME280;42935;50.966;16.992;2023-03-13T11:17:02;100354.73;;;9.43;100.00
57050;BME280;42935;50.966;16.992;2023-03-13T11:20:32;100352.24;;;9.48;100.00
57050;BME280;42935;50.966;16.992;2023-03-13T11:23:58;100349.41;;;9.55;100.00
57050;BME280;42935;50.966;16.992;2023-03-13T11:30:53;100342.95;;;9.64;100.00
57050;BME280;42935;50.966;16.992;2023-03-13T11:34:20;100331.17;;;9.61;100.00
57050;BME280;42935;50.966;16.992;2023-03-13T11:37:43;100319.71;;;9.64;100.00
57050;BME280;42935;50.966;16.992;2023-03-13T11:41:14;100310.07;;;9.76;100.00
57050;BME280;42935;50.966;16.992;2023-03-13T11:48:12;100315.47;;;9.86;100.00
57050;BME280;42935;50.966;16.992;2023-03-13T12:05:39;100286.24;;;10.11;100.00
57050;BME280;42935;50.966;16.992;2023-03-13T12:16:05;100266.32;;;10.14;100.00
57050;BME280;42935;50.966;16.992;2023-03-13T12:19:32;100270.85;;;10.18;100.00
57050;BME280;42935;50.966;16.992;2023-03-13T12:26:20;100268.45;;;9.92;100.00
57050;BME280;42935;50.966;16.992;2023-03-13T12:30:00;100279.14;;;9.91;100.00
57050;BME280;42935;50.966;16.992;2023-03-13T12:36:51;100257.65;;;9.86;100.00
57050;BME280;42935;50.966;16.992;2023-03-13T12:40:20;100265.62;;;10.00;100.00
57050;BME280;42935;50.966;16.992;2023-03-13T12:43:39;100243.52;;;10.06;100.00
57050;BME280;42935;50.966;16.992;2023-03-13T12:47:09;100222.20;;;10.11;100.00
57050;BME280;42935;50.966;16.992;2023-03-13T12:50:35;100231.50;;;10.23;100.00
57050;BME280;42935;50.966;16.992;2023-03-13T12:57:55;100226.63;;;10.41;100.00
57050;BME280;42935;50.966;16.992;2023-03-13T13:00:51;100223.46;;;10.52;100.00
57050;BME280;42935;50.966;16.992;2023-03-13T13:07:37;100221.02;;;10.67;100.00
57050;BME280;42935;50.966;16.992;2023-03-13T13:14:53;100201.66;;;10.72;100.00
57050;BME280;42935;50.966;16.992;2023-03-13T13:21:29;100213.34;;;10.78;100.00
57050;BME280;42935;50.966;16.992;2023-03-13T13:24:51;100210.77;;;10.77;100.00
57050;BME280;42935;50.966;16.992;2023-03-13T13:35:37;100223.29;;;10.97;100.00
57050;BME280;42935;50.966;16.992;2023-03-13T13:38:55;100209.97;;;11.02;100.00
57050;BME280;42935;50.966;16.992;2023-03-13T13:45:55;100201.94;;;10.93;100.00
57050;BME280;42935;50.966;16.992;2023-03-13T13:49:17;100202.84;;;10.95;100.00
57050;BME280;42935;50.966;16.992;2023-03-13T13:52:38;100182.87;;;10.84;100.00
57050;BME280;42935;50.966;16.992;2023-03-13T13:55:53;100196.20;;;10.96;100.00
57050;BME280;42935;50.966;16.992;2023-03-13T13:59:23;100202.34;;;11.03;100.00
57050;BME280;42935;50.966;16.992;2023-03-13T14:02:53;100165.97;;;10.86;100.00
57050;BME280;42935;50.966;16.992;2023-03-13T14:06:16;100200.86;;;11.11;100.00
57050;BME280;42935;50.966;16.992;2023-03-13T14:09:49;100192.98;;;11.13;100.00
57050;BME280;42935;50.966;16.992;2023-03-13T14:13:15;100193.29;;;11.14;100.00
57050;BME280;42935;50.966;16.992;2023-03-13T14:16:51;100180.81;;;11.07;100.00
57050;BME280;42935;50.966;16.992;2023-03-13T14:23:43;100190.03;;;11.13;100.00
57050;BME280;42935;50.966;16.992;2023-03-13T14:30:31;100182.73;;;11.05;100.00
57050;BME280;42935;50.966;16.992;2023-03-13T14:33:49;100179.86;;;11.01;100.00
57050;BME280;42935;50.966;16.992;2023-03-13T14:40:37;100183.43;;;10.89;100.00
57050;BME280;42935;50.966;16.992;2023-03-13T14:43:54;100184.86;;;10.89;100.00
57050;BME280;42935;50.966;16.992;2023-03-13T14:47:26;100194.38;;;10.97;100.00
57050;BME280;42935;50.966;16.992;2023-03-13T14:50:46;100198.85;;;11.09;100.00
57050;BME280;42935;50.966;16.992;2023-03-13T14:54:22;100203.78;;;11.11;100.00
57050;BME280;42935;50.966;16.992;2023-03-13T14:57:34;100198.48;;;11.13;100.00
57050;BME280;42935;50.966;16.992;2023-03-13T15:07:54;100177.33;;;11.77;100.00
57050;BME280;42935;50.966;16.992;2023-03-13T15:14:43;100186.49;;;12.23;100.00
57050;BME280;42935;50.966;16.992;2023-03-13T15:18:15;100200.44;;;12.19;100.00
57050;BME280;42935;50.966;16.992;2023-03-13T15:21:33;100191.91;;;11.94;100.00
57050;BME280;42935;50.966;16.992;2023-03-13T15:24:55;100193.81;;;11.76;100.00
57050;BME280;42935;50.966;16.992;2023-03-13T15:28:23;100205.08;;;11.76;100.00
57050;BME280;42935;50.966;16.992;2023-03-13T15:31:39;100201.86;;;11.73;100.00
57050;BME280;42935;50.966;16.992;2023-03-13T15:34:55;100193.24;;;11.83;100.00
57050;BME280;42935;50.966;16.992;2023-03-13T15:38:27;100172.50;;;12.00;100.00
57050;BME280;42935;50.966;16.992;2023-03-13T15:41:46;100179.94;;;12.38;100.00
57050;BME280;42935;50.966;16.992;2023-03-13T15:45:04;100162.05;;;12.17;100.00
57050;BME280;42935;50.966;16.992;2023-03-13T15:48:25;100169.91;;;12.10;100.00
57050;BME280;42935;50.966;16.992;2023-03-13T15:51:47;100170.82;;;12.04;100.00
57050;BME280;42935;50.966;16.992;2023-03-13T15:56:21;100158.34;;;12.05;100.00
57050;BME280;42935;50.966;16.992;2023-03-13T15:59:39;100145.59;;;12.20;100.00
57050;BME280;42935;50.966;16.992;2023-03-13T16:03:29;100104.20;;;12.31;100.00
57050;BME280;42935;50.966;16.992;2023-03-13T16:06:52;100119.95;;;12.58;100.00
57050;BME280;42935;50.966;16.992;2023-03-13T16:10:20;100112.39;;;12.15;100.00
57050;BME280;42935;50.966;16.992;2023-03-13T16:13:34;100116.39;;;12.11;100.00
57050;BME280;42935;50.966;16.992;2023-03-13T16:16:55;100111.55;;;12.04;100.00
57050;BME280;42935;50.966;16.992;2023-03-13T16:20:21;100108.34;;;11.93;100.00
57050;BME280;42935;50.966;16.992;2023-03-13T16:23:42;100100.19;;;11.67;100.00
57050;BME280;42935;50.966;16.992;2023-03-13T16:27:19;100106.48;;;11.54;100.00
57050;BME280;42935;50.966;16.992;2023-03-13T16:30:34;100106.53;;;11.48;100.00
57050;BME280;42935;50.966;16.992;2023-03-13T16:33:50;100095.80;;;11.35;100.00
57050;BME280;42935;50.966;16.992;2023-03-13T16:37:18;100095.68;;;11.25;100.00
57050;BME280;42935;50.966;16.992;2023-03-13T16:40:35;100092.03;;;11.22;100.00
57050;BME280;42935;50.966;16.992;2023-03-13T16:43:54;100094.34;;;11.05;100.00
57050;BME280;42935;50.966;16.992;2023-03-13T16:47:21;100091.47;;;10.94;100.00
57050;BME280;42935;50.966;16.992;2023-03-13T16:50:42;100076.88;;;10.85;100.00
57050;BME280;42935;50.966;16.992;2023-03-13T16:54:05;100080.27;;;10.66;100.00
57050;BME280;42935;50.966;16.992;2023-03-13T16:57:28;100063.03;;;10.50;100.00
57050;BME280;42935;50.966;16.992;2023-03-13T17:00:48;100062.09;;;10.37;100.00
57050;BME280;42935;50.966;16.992;2023-03-13T17:04:06;100062.84;;;10.10;100.00
57050;BME280;42935;50.966;16.992;2023-03-13T17:07:25;100077.58;;;10.06;100.00
57050;BME280;42935;50.966;16.992;2023-03-13T17:10:43;100032.38;;;9.71;100.00
57050;BME280;42935;50.966;16.992;2023-03-13T17:14:03;100074.04;;;9.92;100.00
57050;BME280;42935;50.966;16.992;2023-03-13T17:17:23;100074.10;;;9.81;100.00
57050;BME280;42935;50.966;16.992;2023-03-13T17:20:43;100064.45;;;9.85;100.00
57050;BME280;42935;50.966;16.992;2023-03-13T17:24:33;100048.28;;;9.75;100.00
57050;BME280;42935;50.966;16.992;2023-03-13T17:27:53;100048.57;;;9.61;100.00
57050;BME280;42935;50.966;16.992;2023-03-13T17:31:11;100056.95;;;9.66;100.00
57050;BME280;42935;50.966;16.992;2023-03-13T17:34:35;100079.88;;;9.74;100.00
57050;BME280;42935;50.966;16.992;2023-03-13T17:37:55;100079.17;;;9.74;100.00
57050;BME280;42935;50.966;16.992;2023-03-13T17:41:22;100085.80;;;9.67;100.00
57050;BME280;42935;50.966;16.992;2023-03-13T17:44:43;100077.32;;;9.64;100.00
57050;BME280;42935;50.966;16.992;2023-03-13T17:48:03;100089.53;;;9.60;100.00
57050;BME280;42935;50.966;16.992;2023-03-13T17:51:24;100069.59;;;9.69;100.00
57050;BME280;42935;50.966;16.992;2023-03-13T17:54:45;100060.19;;;9.97;100.00
57050;BME280;42935;50.966;16.992;2023-03-13T17:58:00;100062.86;;;10.02;100.00
57050;BME280;42935;50.966;16.992;2023-03-13T18:01:26;100071.37;;;10.08;100.00
57050;BME280;42935;50.966;16.992;2023-03-13T18:04:46;100046.08;;;10.03;100.00
57050;BME280;42935;50.966;16.992;2023-03-13T18:08:07;100053.10;;;10.14;100.00
57050;BME280;42935;50.966;16.992;2023-03-13T18:11:28;100046.31;;;10.12;100.00
57050;BME280;42935;50.966;16.992;2023-03-13T18:14:45;100051.83;;;10.15;100.00
57050;BME280;42935;50.966;16.992;2023-03-13T18:18:04;100038.03;;;10.05;100.00
57050;BME280;42935;50.966;16.992;2023-03-13T18:21:22;100037.02;;;9.98;100.00
57050;BME280;42935;50.966;16.992;2023-03-13T18:24:39;100049.10;;;9.98;100.00
57050;BME280;42935;50.966;16.992;2023-03-13T18:27:58;100047.73;;;10.00;100.00
57050;BME280;42935;50.966;16.992;2023-03-13T18:31:17;100046.27;;;10.02;100.00
57050;BME280;42935;50.966;16.992;2023-03-13T18:34:34;100056.41;;;9.79;100.00
57050;BME280;42935;50.966;16.992;2023-03-13T18:37:51;100059.33;;;9.85;100.00
57050;BME280;42935;50.966;16.992;2023-03-13T18:41:14;100050.37;;;9.84;100.00
57050;BME280;42935;50.966;16.992;2023-03-13T18:44:34;100065.98;;;9.83;100.00
57050;BME280;42935;50.966;16.992;2023-03-13T18:47:51;100049.35;;;9.82;100.00
57050;BME280;42935;50.966;16.992;2023-03-13T18:51:15;100052.49;;;9.73;100.00
57050;BME280;42935;50.966;16.992;2023-03-13T18:54:30;100051.98;;;9.51;100.00
57050;BME280;42935;50.966;16.992;2023-03-13T18:57:59;100035.65;;;9.42;100.00